sensor_id;sensor_type;location;lat;lon;timestamp;P1;durP1;ratioP1;P2;durP2;ratioP2
11620;SDS011;5866;49.094;11.900;2023-08-07T00:00:10;22.55;;;21.40;;
11620;SDS011;5866;49.094;11.900;2023-08-07T00:02:38;29.45;;;27.95;;
11620;SDS011;5866;49.094;11.900;2023-08-07T00:05:06;27.15;;;25.75;;
11620;SDS011;5866;49.094;11.900;2023-08-07T00:07:34;16.02;;;15.23;;
11620;SDS011;5866;49.094;11.900;2023-08-07T00:10:01;21.95;;;20.85;;
11620;SDS011;5866;49.094;11.900;2023-08-07T00:12:30;10.85;;;10.30;;
11620;SDS011;5866;49.094;11.900;2023-08-07T00:14:58;30.77;;;29.17;;
11620;SDS011;5866;49.094;11.900;2023-08-07T00:17:26;25.60;;;24.30;;
11620;SDS011;5866;49.094;11.900;2023-08-07T00:19:54;22.67;;;21.55;;
11620;SDS011;5866;49.094;11.900;2023-08-07T00:22:22;22.73;;;21.52;;
11620;SDS011;5866;49.094;11.900;2023-08-07T00:24:51;21.60;;;20.50;;
11620;SDS011;5866;49.094;11.900;2023-08-07T00:27:18;24.83;;;23.55;;
11620;SDS011;5866;49.094;11.900;2023-08-07T00:29:47;19.23;;;18.33;;
11620;SDS011;5866;49.094;11.900;2023-08-07T00:32:15;9.20;;;8.73;;
11620;SDS011;5866;49.094;11.900;2023-08-07T00:34:43;7.13;;;6.72;;
11620;SDS011;5866;49.094;11.900;2023-08-07T00:37:10;10.52;;;9.82;;
11620;SDS011;5866;49.094;11.900;2023-08-07T00:39:38;9.77;;;9.23;;
11620;SDS011;5866;49.094;11.900;2023-08-07T00:42:06;17.88;;;17.00;;
11620;SDS011;5866;49.094;11.900;2023-08-07T00:44:34;6.68;;;6.38;;
11620;SDS011;5866;49.094;11.900;2023-08-07T00:47:03;4.22;;;4.03;;
11620;SDS011;5866;49.094;11.900;2023-08-07T00:49:31;5.63;;;5.32;;
11620;SDS011;5866;49.094;11.900;2023-08-07T00:52:00;8.07;;;7.68;;
11620;SDS011;5866;49.094;11.900;2023-08-07T00:54:27;5.68;;;5.38;;
11620;SDS011;5866;49.094;11.900;2023-08-07T00:56:56;6.25;;;5.95;;
11620;SDS011;5866;49.094;11.900;2023-08-07T00:59:27;6.45;;;6.15;;
11620;SDS011;5866;49.094;11.900;2023-08-07T01:01:54;7.03;;;6.63;;
11620;SDS011;5866;49.094;11.900;2023-08-07T01:04:24;6.20;;;5.90;;
11620;SDS011;5866;49.094;11.900;2023-08-07T01:06:51;4.43;;;4.22;;
11620;SDS011;5866;49.094;11.900;2023-08-07T01:09:19;8.18;;;7.78;;
11620;SDS011;5866;49.094;11.900;2023-08-07T01:11:48;6.43;;;6.13;;
11620;SDS011;5866;49.094;11.900;2023-08-07T01:14:19;7.30;;;6.97;;
11620;SDS011;5866;49.094;11.900;2023-08-07T01:16:57;7.82;;;7.45;;
11620;SDS011;5866;49.094;11.900;2023-08-07T01:19:33;9.38;;;8.88;;
11620;SDS011;5866;49.094;11.900;2023-08-07T01:22:06;9.95;;;9.48;;
11620;SDS011;5866;49.094;11.900;2023-08-07T01:24:35;12.88;;;12.10;;
11620;SDS011;5866;49.094;11.900;2023-08-07T01:27:07;11.25;;;10.73;;
11620;SDS011;5866;49.094;11.900;2023-08-07T01:29:48;5.88;;;5.55;;
11620;SDS011;5866;49.094;11.900;2023-08-07T01:32:24;5.07;;;4.88;;
11620;SDS011;5866;49.094;11.900;2023-08-07T01:34:55;4.47;;;4.18;;
11620;SDS011;5866;49.094;11.900;2023-08-07T01:37:25;5.70;;;5.43;;
11620;SDS011;5866;49.094;11.900;2023-08-07T01:39:55;7.15;;;6.75;;
11620;SDS011;5866;49.094;11.900;2023-08-07T01:42:25;7.18;;;6.85;;
11620;SDS011;5866;49.094;11.900;2023-08-07T01:44:54;8.20;;;7.80;;
11620;SDS011;5866;49.094;11.900;2023-08-07T01:47:21;10.95;;;10.43;;
11620;SDS011;5866;49.094;11.900;2023-08-07T01:49:49;9.07;;;8.63;;
11620;SDS011;5866;49.094;11.900;2023-08-07T01:52:17;5.35;;;5.05;;
11620;SDS011;5866;49.094;11.900;2023-08-07T01:54:46;4.32;;;4.07;;
11620;SDS011;5866;49.094;11.900;2023-08-07T01:57:14;4.88;;;4.43;;
11620;SDS011;5866;49.094;11.900;2023-08-07T01:59:42;4.05;;;3.85;;
11620;SDS011;5866;49.094;11.900;2023-08-07T02:02:10;3.90;;;3.70;;
11620;SDS011;5866;49.094;11.900;2023-08-07T02:04:38;4.65;;;4.35;;
11620;SDS011;5866;49.094;11.900;2023-08-07T02:07:06;7.35;;;6.95;;
11620;SDS011;5866;49.094;11.900;2023-08-07T02:09:34;6.05;;;5.75;;
11620;SDS011;5866;49.094;11.900;2023-08-07T02:12:03;21.50;;;20.25;;
11620;SDS011;5866;49.094;11.900;2023-08-07T02:14:31;6.15;;;5.82;;
11620;SDS011;5866;49.094;11.900;2023-08-07T02:16:59;17.52;;;16.55;;
11620;SDS011;5866;49.094;11.900;2023-08-07T02:19:26;4.85;;;4.60;;
11620;SDS011;5866;49.094;11.900;2023-08-07T02:21:54;5.13;;;4.85;;
11620;SDS011;5866;49.094;11.900;2023-08-07T02:24:21;8.02;;;7.63;;
11620;SDS011;5866;49.094;11.900;2023-08-07T02:26:49;3.70;;;3.50;;
11620;SDS011;5866;49.094;11.900;2023-08-07T02:29:18;5.55;;;5.28;;
11620;SDS011;5866;49.094;11.900;2023-08-07T02:31:45;5.53;;;5.28;;
11620;SDS011;5866;49.094;11.900;2023-08-07T02:34:13;3.70;;;3.50;;
11620;SDS011;5866;49.094;11.900;2023-08-07T02:36:41;7.78;;;7.38;;
11620;SDS011;5866;49.094;11.900;2023-08-07T02:39:08;3.35;;;3.15;;
11620;SDS011;5866;49.094;11.900;2023-08-07T02:41:36;6.60;;;6.30;;
11620;SDS011;5866;49.094;11.900;2023-08-07T02:44:04;2.78;;;2.58;;
11620;SDS011;5866;49.094;11.900;2023-08-07T02:46:33;6.15;;;5.85;;
11620;SDS011;5866;49.094;11.900;2023-08-07T02:49:02;7.10;;;6.80;;
11620;SDS011;5866;49.094;11.900;2023-08-07T02:51:31;13.23;;;12.48;;
11620;SDS011;5866;49.094;11.900;2023-08-07T02:53:59;3.83;;;3.63;;
11620;SDS011;5866;49.094;11.900;2023-08-07T02:56:27;2.65;;;2.55;;
11620;SDS011;5866;49.094;11.900;2023-08-07T02:58:54;4.20;;;3.95;;
11620;SDS011;5866;49.094;11.900;2023-08-07T03:01:24;42.08;;;39.33;;
11620;SDS011;5866;49.094;11.900;2023-08-07T03:03:55;9.73;;;9.20;;
11620;SDS011;5866;49.094;11.900;2023-08-07T03:06:22;1.90;;;1.80;;
11620;SDS011;5866;49.094;11.900;2023-08-07T03:08:50;12.88;;;12.18;;
11620;SDS011;5866;49.094;11.900;2023-08-07T03:11:18;5.80;;;5.50;;
11620;SDS011;5866;49.094;11.900;2023-08-07T03:13:45;11.75;;;11.10;;
11620;SDS011;5866;49.094;11.900;2023-08-07T03:16:15;4.97;;;4.78;;
11620;SDS011;5866;49.094;11.900;2023-08-07T03:18:43;7.22;;;6.88;;
11620;SDS011;5866;49.094;11.900;2023-08-07T03:21:12;5.47;;;5.22;;
11620;SDS011;5866;49.094;11.900;2023-08-07T03:23:39;3.95;;;3.75;;
11620;SDS011;5866;49.094;11.900;2023-08-07T03:26:08;6.85;;;6.55;;
11620;SDS011;5866;49.094;11.900;2023-08-07T03:28:39;5.28;;;5.05;;
11620;SDS011;5866;49.094;11.900;2023-08-07T03:31:07;3.83;;;3.63;;
11620;SDS011;5866;49.094;11.900;2023-08-07T03:33:35;4.53;;;4.30;;
11620;SDS011;5866;49.094;11.900;2023-08-07T03:36:02;3.55;;;3.35;;
11620;SDS011;5866;49.094;11.900;2023-08-07T03:38:31;11.57;;;10.95;;
11620;SDS011;5866;49.094;11.900;2023-08-07T03:40:59;25.60;;;24.17;;
11620;SDS011;5866;49.094;11.900;2023-08-07T03:43:26;44.00;;;41.10;;
11620;SDS011;5866;49.094;11.900;2023-08-07T03:45:54;19.13;;;18.15;;
11620;SDS011;5866;49.094;11.900;2023-08-07T03:48:27;8.52;;;8.02;;
11620;SDS011;5866;49.094;11.900;2023-08-07T03:51:01;4.85;;;4.57;;
11620;SDS011;5866;49.094;11.900;2023-08-07T03:53:29;2.47;;;2.38;;
11620;SDS011;5866;49.094;11.900;2023-08-07T03:55:58;8.20;;;7.70;;
11620;SDS011;5866;49.094;11.900;2023-08-07T03:58:26;23.00;;;21.75;;
11620;SDS011;5866;49.094;11.900;2023-08-07T04:00:53;7.93;;;7.45;;
11620;SDS011;5866;49.094;11.900;2023-08-07T04:03:21;9.05;;;8.55;;
11620;SDS011;5866;49.094;11.900;2023-08-07T04:05:51;4.10;;;3.80;;
11620;SDS011;5866;49.094;11.900;2023-08-07T04:08:19;4.78;;;4.47;;
11620;SDS011;5866;49.094;11.900;2023-08-07T04:10:58;5.95;;;5.45;;
11620;SDS011;5866;49.094;11.900;2023-08-07T04:13:27;28.55;;;27.05;;
11620;SDS011;5866;49.094;11.900;2023-08-07T04:15:55;6.53;;;6.22;;
11620;SDS011;5866;49.094;11.900;2023-08-07T04:18:22;6.63;;;6.28;;
11620;SDS011;5866;49.094;11.900;2023-08-07T04:20:51;18.10;;;17.20;;
11620;SDS011;5866;49.094;11.900;2023-08-07T04:23:20;16.75;;;15.70;;
11620;SDS011;5866;49.094;11.900;2023-08-07T04:25:48;7.22;;;6.70;;
11620;SDS011;5866;49.094;11.900;2023-08-07T04:28:17;6.50;;;6.10;;
11620;SDS011;5866;49.094;11.900;2023-08-07T04:30:47;3.65;;;3.38;;
11620;SDS011;5866;49.094;11.900;2023-08-07T04:33:16;3.67;;;3.47;;
11620;SDS011;5866;49.094;11.900;2023-08-07T04:35:44;4.15;;;3.92;;
11620;SDS011;5866;49.094;11.900;2023-08-07T04:38:12;2.58;;;2.47;;
11620;SDS011;5866;49.094;11.900;2023-08-07T04:40:43;5.60;;;4.63;;
11620;SDS011;5866;49.094;11.900;2023-08-07T04:43:12;5.68;;;5.38;;
11620;SDS011;5866;49.094;11.900;2023-08-07T04:45:41;5.60;;;5.30;;
11620;SDS011;5866;49.094;11.900;2023-08-07T04:48:11;3.88;;;3.67;;
11620;SDS011;5866;49.094;11.900;2023-08-07T04:50:39;3.88;;;3.58;;
11620;SDS011;5866;49.094;11.900;2023-08-07T04:53:07;12.55;;;11.93;;
11620;SDS011;5866;49.094;11.900;2023-08-07T04:55:35;7.47;;;7.10;;
11620;SDS011;5866;49.094;11.900;2023-08-07T04:58:02;5.97;;;5.63;;
11620;SDS011;5866;49.094;11.900;2023-08-07T05:00:30;8.18;;;7.78;;
11620;SDS011;5866;49.094;11.900;2023-08-07T05:02:59;4.03;;;3.83;;
11620;SDS011;5866;49.094;11.900;2023-08-07T05:05:28;5.65;;;5.35;;
11620;SDS011;5866;49.094;11.900;2023-08-07T05:07:55;6.35;;;5.95;;
11620;SDS011;5866;49.094;11.900;2023-08-07T05:10:25;5.47;;;5.18;;
11620;SDS011;5866;49.094;11.900;2023-08-07T05:12:53;5.55;;;5.03;;
11620;SDS011;5866;49.094;11.900;2023-08-07T05:15:22;5.47;;;5.07;;
11620;SDS011;5866;49.094;11.900;2023-08-07T05:17:49;8.90;;;8.35;;
11620;SDS011;5866;49.094;11.900;2023-08-07T05:20:19;3.75;;;3.55;;
11620;SDS011;5866;49.094;11.900;2023-08-07T05:22:46;3.55;;;3.25;;
11620;SDS011;5866;49.094;11.900;2023-08-07T05:25:14;25.73;;;24.23;;
11620;SDS011;5866;49.094;11.900;2023-08-07T05:27:42;4.63;;;4.43;;
11620;SDS011;5866;49.094;11.900;2023-08-07T05:30:10;5.43;;;5.13;;
11620;SDS011;5866;49.094;11.900;2023-08-07T05:32:39;11.90;;;11.30;;
11620;SDS011;5866;49.094;11.900;2023-08-07T05:35:07;7.03;;;6.70;;
11620;SDS011;5866;49.094;11.900;2023-08-07T05:37:37;4.60;;;4.05;;
11620;SDS011;5866;49.094;11.900;2023-08-07T05:40:05;4.65;;;4.35;;
11620;SDS011;5866;49.094;11.900;2023-08-07T05:42:33;7.70;;;7.28;;
11620;SDS011;5866;49.094;11.900;2023-08-07T05:45:02;2.97;;;2.80;;
11620;SDS011;5866;49.094;11.900;2023-08-07T05:47:31;5.35;;;4.95;;
11620;SDS011;5866;49.094;11.900;2023-08-07T05:49:59;3.40;;;3.20;;
11620;SDS011;5866;49.094;11.900;2023-08-07T05:52:27;5.07;;;4.78;;
11620;SDS011;5866;49.094;11.900;2023-08-07T05:54:56;4.30;;;3.90;;
11620;SDS011;5866;49.094;11.900;2023-08-07T05:57:24;5.20;;;4.97;;
11620;SDS011;5866;49.094;11.900;2023-08-07T05:59:51;5.22;;;4.82;;
11620;SDS011;5866;49.094;11.900;2023-08-07T06:02:19;4.10;;;3.90;;
11620;SDS011;5866;49.094;11.900;2023-08-07T06:04:47;7.78;;;7.15;;
11620;SDS011;5866;49.094;11.900;2023-08-07T06:07:14;24.05;;;22.85;;
11620;SDS011;5866;49.094;11.900;2023-08-07T06:09:42;6.97;;;6.57;;
11620;SDS011;5866;49.094;11.900;2023-08-07T06:12:11;9.05;;;8.55;;
11620;SDS011;5866;49.094;11.900;2023-08-07T06:14:39;12.38;;;11.68;;
11620;SDS011;5866;49.094;11.900;2023-08-07T06:17:06;12.43;;;11.80;;
11620;SDS011;5866;49.094;11.900;2023-08-07T06:19:34;21.83;;;20.45;;
11620;SDS011;5866;49.094;11.900;2023-08-07T06:22:01;14.98;;;14.18;;
11620;SDS011;5866;49.094;11.900;2023-08-07T06:24:29;6.15;;;5.85;;
11620;SDS011;5866;49.094;11.900;2023-08-07T06:26:56;10.15;;;9.65;;
11620;SDS011;5866;49.094;11.900;2023-08-07T06:29:25;10.48;;;9.90;;
11620;SDS011;5866;49.094;11.900;2023-08-07T06:31:53;11.27;;;10.73;;
11620;SDS011;5866;49.094;11.900;2023-08-07T06:34:21;15.77;;;14.98;;
11620;SDS011;5866;49.094;11.900;2023-08-07T06:36:49;14.95;;;14.15;;
11620;SDS011;5866;49.094;11.900;2023-08-07T06:39:17;14.85;;;14.02;;
11620;SDS011;5866;49.094;11.900;2023-08-07T06:41:44;18.40;;;17.15;;
11620;SDS011;5866;49.094;11.900;2023-08-07T06:44:12;35.15;;;33.30;;
11620;SDS011;5866;49.094;11.900;2023-08-07T06:46:41;9.15;;;8.65;;
11620;SDS011;5866;49.094;11.900;2023-08-07T06:49:08;27.05;;;25.63;;
11620;SDS011;5866;49.094;11.900;2023-08-07T06:51:36;16.33;;;15.45;;
11620;SDS011;5866;49.094;11.900;2023-08-07T06:54:03;9.07;;;8.60;;
11620;SDS011;5866;49.094;11.900;2023-08-07T06:56:31;8.02;;;7.45;;
11620;SDS011;5866;49.094;11.900;2023-08-07T06:58:59;5.70;;;5.30;;
11620;SDS011;5866;49.094;11.900;2023-08-07T07:01:26;6.25;;;5.95;;
11620;SDS011;5866;49.094;11.900;2023-08-07T07:03:56;5.82;;;5.43;;
11620;SDS011;5866;49.094;11.900;2023-08-07T07:06:24;5.50;;;5.20;;
11620;SDS011;5866;49.094;11.900;2023-08-07T07:08:52;4.63;;;4.32;;
11620;SDS011;5866;49.094;11.900;2023-08-07T07:11:20;5.03;;;4.63;;
11620;SDS011;5866;49.094;11.900;2023-08-07T07:13:50;4.50;;;4.20;;
11620;SDS011;5866;49.094;11.900;2023-08-07T07:16:18;4.53;;;3.50;;
11620;SDS011;5866;49.094;11.900;2023-08-07T07:18:48;23.23;;;21.38;;
11620;SDS011;5866;49.094;11.900;2023-08-07T07:21:18;5.28;;;4.88;;
11620;SDS011;5866;49.094;11.900;2023-08-07T07:23:46;6.97;;;6.53;;
11620;SDS011;5866;49.094;11.900;2023-08-07T07:26:14;10.57;;;9.98;;
11620;SDS011;5866;49.094;11.900;2023-08-07T07:28:41;9.57;;;9.07;;
11620;SDS011;5866;49.094;11.900;2023-08-07T07:31:09;6.40;;;5.90;;
11620;SDS011;5866;49.094;11.900;2023-08-07T07:33:38;4.80;;;4.50;;
11620;SDS011;5866;49.094;11.900;2023-08-07T07:36:07;4.22;;;3.95;;
11620;SDS011;5866;49.094;11.900;2023-08-07T07:38:42;5.20;;;4.90;;
11620;SDS011;5866;49.094;11.900;2023-08-07T07:41:11;3.33;;;3.13;;
11620;SDS011;5866;49.094;11.900;2023-08-07T07:43:39;7.28;;;6.88;;
11620;SDS011;5866;49.094;11.900;2023-08-07T07:46:07;4.78;;;4.47;;
11620;SDS011;5866;49.094;11.900;2023-08-07T07:48:34;4.65;;;4.28;;
11620;SDS011;5866;49.094;11.900;2023-08-07T07:51:02;2.80;;;2.60;;
11620;SDS011;5866;49.094;11.900;2023-08-07T07:53:30;3.10;;;2.90;;
11620;SDS011;5866;49.094;11.900;2023-08-07T07:55:59;2.67;;;2.47;;
11620;SDS011;5866;49.094;11.900;2023-08-07T07:58:27;2.50;;;2.40;;
11620;SDS011;5866;49.094;11.900;2023-08-07T08:00:54;3.42;;;3.22;;
11620;SDS011;5866;49.094;11.900;2023-08-07T08:03:22;2.55;;;2.38;;
11620;SDS011;5866;49.094;11.900;2023-08-07T08:05:51;6.93;;;6.50;;
11620;SDS011;5866;49.094;11.900;2023-08-07T08:08:18;2.75;;;2.55;;
11620;SDS011;5866;49.094;11.900;2023-08-07T08:10:46;4.13;;;3.83;;
11620;SDS011;5866;49.094;11.900;2023-08-07T08:13:15;2.30;;;2.15;;
11620;SDS011;5866;49.094;11.900;2023-08-07T08:15:43;54.28;;;50.47;;
11620;SDS011;5866;49.094;11.900;2023-08-07T08:18:11;3.60;;;3.40;;
11620;SDS011;5866;49.094;11.900;2023-08-07T08:20:39;3.33;;;3.13;;
11620;SDS011;5866;49.094;11.900;2023-08-07T08:23:07;2.92;;;2.78;;
11620;SDS011;5866;49.094;11.900;2023-08-07T08:25:34;3.00;;;2.80;;
11620;SDS011;5866;49.094;11.900;2023-08-07T08:28:02;3.85;;;3.55;;
11620;SDS011;5866;49.094;11.900;2023-08-07T08:30:31;3.13;;;2.92;;
11620;SDS011;5866;49.094;11.900;2023-08-07T08:32:58;3.95;;;3.75;;
11620;SDS011;5866;49.094;11.900;2023-08-07T08:35:26;2.75;;;2.55;;
11620;SDS011;5866;49.094;11.900;2023-08-07T08:37:54;3.95;;;3.60;;
11620;SDS011;5866;49.094;11.900;2023-08-07T08:40:21;3.65;;;3.45;;
11620;SDS011;5866;49.094;11.900;2023-08-07T08:42:49;2.67;;;2.47;;
11620;SDS011;5866;49.094;11.900;2023-08-07T08:45:19;2.70;;;2.50;;
11620;SDS011;5866;49.094;11.900;2023-08-07T08:47:49;3.08;;;2.78;;
11620;SDS011;5866;49.094;11.900;2023-08-07T08:50:19;2.60;;;2.40;;
11620;SDS011;5866;49.094;11.900;2023-08-07T08:52:46;2.60;;;2.40;;
11620;SDS011;5866;49.094;11.900;2023-08-07T08:55:15;4.95;;;4.65;;
11620;SDS011;5866;49.094;11.900;2023-08-07T08:57:42;3.40;;;3.10;;
11620;SDS011;5866;49.094;11.900;2023-08-07T09:00:11;3.15;;;2.83;;
11620;SDS011;5866;49.094;11.900;2023-08-07T09:02:50;4.72;;;2.97;;
11620;SDS011;5866;49.094;11.900;2023-08-07T09:05:19;2.90;;;2.60;;
11620;SDS011;5866;49.094;11.900;2023-08-07T09:07:47;3.58;;;2.83;;
11620;SDS011;5866;49.094;11.900;2023-08-07T09:10:16;4.03;;;3.60;;
11620;SDS011;5866;49.094;11.900;2023-08-07T09:12:45;3.30;;;3.00;;
11620;SDS011;5866;49.094;11.900;2023-08-07T09:15:20;3.40;;;3.20;;
11620;SDS011;5866;49.094;11.900;2023-08-07T09:17:51;4.63;;;3.10;;
11620;SDS011;5866;49.094;11.900;2023-08-07T09:20:22;3.95;;;3.30;;
11620;SDS011;5866;49.094;11.900;2023-08-07T09:22:49;3.30;;;2.92;;
11620;SDS011;5866;49.094;11.900;2023-08-07T09:25:26;3.70;;;3.40;;
11620;SDS011;5866;49.094;11.900;2023-08-07T09:27:55;5.55;;;5.10;;
11620;SDS011;5866;49.094;11.900;2023-08-07T09:30:25;4.88;;;3.83;;
11620;SDS011;5866;49.094;11.900;2023-08-07T09:32:55;6.07;;;5.68;;
11620;SDS011;5866;49.094;11.900;2023-08-07T09:35:24;12.93;;;11.90;;
11620;SDS011;5866;49.094;11.900;2023-08-07T09:37:51;6.80;;;6.30;;
11620;SDS011;5866;49.094;11.900;2023-08-07T09:40:19;5.88;;;5.30;;
11620;SDS011;5866;49.094;11.900;2023-08-07T09:42:49;5.70;;;4.55;;
11620;SDS011;5866;49.094;11.900;2023-08-07T09:45:18;7.47;;;4.68;;
11620;SDS011;5866;49.094;11.900;2023-08-07T09:47:57;7.07;;;6.50;;
11620;SDS011;5866;49.094;11.900;2023-08-07T09:50:26;4.97;;;4.50;;
11620;SDS011;5866;49.094;11.900;2023-08-07T09:52:54;6.40;;;5.90;;
11620;SDS011;5866;49.094;11.900;2023-08-07T09:55:24;4.38;;;4.03;;
11620;SDS011;5866;49.094;11.900;2023-08-07T09:57:52;4.97;;;4.47;;
11620;SDS011;5866;49.094;11.900;2023-08-07T10:00:20;4.10;;;3.70;;
11620;SDS011;5866;49.094;11.900;2023-08-07T10:02:49;6.65;;;4.22;;
11620;SDS011;5866;49.094;11.900;2023-08-07T10:05:19;7.28;;;6.88;;
11620;SDS011;5866;49.094;11.900;2023-08-07T10:07:47;4.53;;;4.13;;
11620;SDS011;5866;49.094;11.900;2023-08-07T10:10:15;4.00;;;3.60;;
11620;SDS011;5866;49.094;11.900;2023-08-07T10:12:43;20.77;;;19.45;;
11620;SDS011;5866;49.094;11.900;2023-08-07T10:15:14;10.55;;;9.55;;
11620;SDS011;5866;49.094;11.900;2023-08-07T10:17:42;8.00;;;7.50;;
11620;SDS011;5866;49.094;11.900;2023-08-07T10:20:11;13.98;;;12.90;;
11620;SDS011;5866;49.094;11.900;2023-08-07T10:22:40;8.65;;;8.05;;
11620;SDS011;5866;49.094;11.900;2023-08-07T10:25:09;16.58;;;15.40;;
11620;SDS011;5866;49.094;11.900;2023-08-07T10:27:38;7.07;;;6.57;;
11620;SDS011;5866;49.094;11.900;2023-08-07T10:30:09;9.63;;;9.02;;
11620;SDS011;5866;49.094;11.900;2023-08-07T10:32:40;11.32;;;10.52;;
11620;SDS011;5866;49.094;11.900;2023-08-07T10:35:10;11.10;;;10.32;;
11620;SDS011;5866;49.094;11.900;2023-08-07T10:37:52;8.13;;;7.63;;
11620;SDS011;5866;49.094;11.900;2023-08-07T10:40:20;8.85;;;8.25;;
11620;SDS011;5866;49.094;11.900;2023-08-07T10:42:58;9.23;;;8.55;;
11620;SDS011;5866;49.094;11.900;2023-08-07T10:45:27;6.47;;;6.07;;
11620;SDS011;5866;49.094;11.900;2023-08-07T10:48:02;6.15;;;5.78;;
11620;SDS011;5866;49.094;11.900;2023-08-07T10:50:33;6.53;;;6.13;;
11620;SDS011;5866;49.094;11.900;2023-08-07T10:53:03;12.63;;;11.93;;
11620;SDS011;5866;49.094;11.900;2023-08-07T10:55:31;10.55;;;9.90;;
11620;SDS011;5866;49.094;11.900;2023-08-07T10:58:20;11.45;;;10.65;;
11620;SDS011;5866;49.094;11.900;2023-08-07T11:00:49;9.88;;;9.27;;
11620;SDS011;5866;49.094;11.900;2023-08-07T11:03:20;11.52;;;10.93;;
11620;SDS011;5866;49.094;11.900;2023-08-07T11:05:53;9.43;;;8.88;;
11620;SDS011;5866;49.094;11.900;2023-08-07T11:08:23;13.45;;;12.63;;
11620;SDS011;5866;49.094;11.900;2023-08-07T11:10:51;18.35;;;17.40;;
11620;SDS011;5866;49.094;11.900;2023-08-07T11:13:18;8.20;;;7.68;;
11620;SDS011;5866;49.094;11.900;2023-08-07T11:15:46;21.33;;;20.08;;
11620;SDS011;5866;49.094;11.900;2023-08-07T11:18:14;21.17;;;19.95;;
11620;SDS011;5866;49.094;11.900;2023-08-07T11:20:43;14.52;;;13.73;;
11620;SDS011;5866;49.094;11.900;2023-08-07T11:23:11;13.07;;;12.38;;
11620;SDS011;5866;49.094;11.900;2023-08-07T11:25:40;15.02;;;14.23;;
11620;SDS011;5866;49.094;11.900;2023-08-07T11:28:08;12.73;;;12.02;;
11620;SDS011;5866;49.094;11.900;2023-08-07T11:30:36;13.38;;;12.68;;
11620;SDS011;5866;49.094;11.900;2023-08-07T11:33:05;14.90;;;14.10;;
11620;SDS011;5866;49.094;11.900;2023-08-07T11:35:33;11.75;;;11.00;;
11620;SDS011;5866;49.094;11.900;2023-08-07T11:38:00;10.57;;;10.05;;
11620;SDS011;5866;49.094;11.900;2023-08-07T11:40:28;9.80;;;9.18;;
11620;SDS011;5866;49.094;11.900;2023-08-07T11:42:57;9.30;;;8.70;;
11620;SDS011;5866;49.094;11.900;2023-08-07T11:45:25;9.18;;;8.13;;
11620;SDS011;5866;49.094;11.900;2023-08-07T11:47:52;7.93;;;7.43;;
11620;SDS011;5866;49.094;11.900;2023-08-07T11:50:22;6.32;;;5.72;;
11620;SDS011;5866;49.094;11.900;2023-08-07T11:52:50;10.23;;;9.43;;
11620;SDS011;5866;49.094;11.900;2023-08-07T11:55:17;14.45;;;13.65;;
11620;SDS011;5866;49.094;11.900;2023-08-07T11:57:46;19.95;;;18.90;;
11620;SDS011;5866;49.094;11.900;2023-08-07T12:00:15;23.83;;;22.52;;
11620;SDS011;5866;49.094;11.900;2023-08-07T12:02:43;18.25;;;17.15;;
11620;SDS011;5866;49.094;11.900;2023-08-07T12:05:11;15.95;;;14.95;;
11620;SDS011;5866;49.094;11.900;2023-08-07T12:07:39;14.98;;;13.88;;
11620;SDS011;5866;49.094;11.900;2023-08-07T12:10:07;13.10;;;12.27;;
11620;SDS011;5866;49.094;11.900;2023-08-07T12:12:36;16.83;;;15.70;;
11620;SDS011;5866;49.094;11.900;2023-08-07T12:15:06;21.65;;;20.45;;
11620;SDS011;5866;49.094;11.900;2023-08-07T12:17:36;18.63;;;17.30;;
11620;SDS011;5866;49.094;11.900;2023-08-07T12:20:04;26.05;;;24.65;;
11620;SDS011;5866;49.094;11.900;2023-08-07T12:22:36;30.83;;;29.25;;
11620;SDS011;5866;49.094;11.900;2023-08-07T12:25:04;34.50;;;32.67;;
11620;SDS011;5866;49.094;11.900;2023-08-07T12:27:32;30.77;;;29.17;;
11620;SDS011;5866;49.094;11.900;2023-08-07T12:30:00;40.42;;;38.28;;
11620;SDS011;5866;49.094;11.900;2023-08-07T12:32:27;35.58;;;33.67;;
11620;SDS011;5866;49.094;11.900;2023-08-07T12:34:56;34.15;;;32.33;;
11620;SDS011;5866;49.094;11.900;2023-08-07T12:37:27;43.25;;;40.85;;
11620;SDS011;5866;49.094;11.900;2023-08-07T12:39:54;38.63;;;36.60;;
11620;SDS011;5866;49.094;11.900;2023-08-07T12:42:42;39.42;;;37.22;;
11620;SDS011;5866;49.094;11.900;2023-08-07T12:45:09;37.28;;;35.13;;
11620;SDS011;5866;49.094;11.900;2023-08-07T12:47:38;34.50;;;32.65;;
11620;SDS011;5866;49.094;11.900;2023-08-07T12:50:09;31.15;;;29.30;;
11620;SDS011;5866;49.094;11.900;2023-08-07T12:52:36;28.33;;;26.83;;
11620;SDS011;5866;49.094;11.900;2023-08-07T12:55:04;32.53;;;30.80;;
11620;SDS011;5866;49.094;11.900;2023-08-07T12:57:34;20.60;;;19.45;;
11620;SDS011;5866;49.094;11.900;2023-08-07T13:00:01;32.58;;;30.80;;
11620;SDS011;5866;49.094;11.900;2023-08-07T13:02:30;33.45;;;31.55;;
11620;SDS011;5866;49.094;11.900;2023-08-07T13:04:58;37.15;;;35.15;;
11620;SDS011;5866;49.094;11.900;2023-08-07T13:07:27;36.58;;;34.67;;
11620;SDS011;5866;49.094;11.900;2023-08-07T13:09:54;35.85;;;33.95;;
11620;SDS011;5866;49.094;11.900;2023-08-07T13:12:23;27.20;;;25.83;;
11620;SDS011;5866;49.094;11.900;2023-08-07T13:14:50;35.83;;;33.92;;
11620;SDS011;5866;49.094;11.900;2023-08-07T13:17:18;38.30;;;36.22;;
11620;SDS011;5866;49.094;11.900;2023-08-07T13:19:46;25.92;;;24.52;;
11620;SDS011;5866;49.094;11.900;2023-08-07T13:22:13;30.30;;;28.60;;
11620;SDS011;5866;49.094;11.900;2023-08-07T13:24:42;39.47;;;37.25;;
11620;SDS011;5866;49.094;11.900;2023-08-07T13:27:10;33.85;;;31.98;;
11620;SDS011;5866;49.094;11.900;2023-08-07T13:29:38;39.25;;;37.17;;
11620;SDS011;5866;49.094;11.900;2023-08-07T13:32:05;43.38;;;41.00;;
11620;SDS011;5866;49.094;11.900;2023-08-07T13:34:35;45.00;;;42.40;;
11620;SDS011;5866;49.094;11.900;2023-08-07T13:37:03;41.35;;;39.10;;
11620;SDS011;5866;49.094;11.900;2023-08-07T13:39:31;43.05;;;40.75;;
11620;SDS011;5866;49.094;11.900;2023-08-07T13:42:00;45.28;;;42.78;;
11620;SDS011;5866;49.094;11.900;2023-08-07T13:44:28;21.98;;;20.58;;
11620;SDS011;5866;49.094;11.900;2023-08-07T13:46:55;37.05;;;35.10;;
11620;SDS011;5866;49.094;11.900;2023-08-07T13:49:23;24.80;;;23.30;;
11620;SDS011;5866;49.094;11.900;2023-08-07T13:51:50;9.60;;;8.90;;
11620;SDS011;5866;49.094;11.900;2023-08-07T13:54:18;5.70;;;5.38;;
11620;SDS011;5866;49.094;11.900;2023-08-07T13:56:46;5.68;;;5.28;;
11620;SDS011;5866;49.094;11.900;2023-08-07T13:59:14;2.80;;;2.60;;
11620;SDS011;5866;49.094;11.900;2023-08-07T14:01:42;2.88;;;2.72;;
11620;SDS011;5866;49.094;11.900;2023-08-07T14:04:10;2.65;;;2.45;;
11620;SDS011;5866;49.094;11.900;2023-08-07T14:06:37;6.80;;;6.40;;
11620;SDS011;5866;49.094;11.900;2023-08-07T14:09:05;2.30;;;2.10;;
11620;SDS011;5866;49.094;11.900;2023-08-07T14:11:32;4.95;;;4.55;;
11620;SDS011;5866;49.094;11.900;2023-08-07T14:14:00;5.60;;;5.10;;
11620;SDS011;5866;49.094;11.900;2023-08-07T14:16:29;13.73;;;13.00;;
11620;SDS011;5866;49.094;11.900;2023-08-07T14:18:57;43.97;;;41.38;;
11620;SDS011;5866;49.094;11.900;2023-08-07T14:21:25;7.85;;;7.45;;
11620;SDS011;5866;49.094;11.900;2023-08-07T14:23:53;6.63;;;6.22;;
11620;SDS011;5866;49.094;11.900;2023-08-07T14:26:20;4.85;;;4.43;;
11620;SDS011;5866;49.094;11.900;2023-08-07T14:28:48;5.10;;;4.80;;
11620;SDS011;5866;49.094;11.900;2023-08-07T14:31:16;5.53;;;5.10;;
11620;SDS011;5866;49.094;11.900;2023-08-07T14:33:44;2.67;;;2.47;;
11620;SDS011;5866;49.094;11.900;2023-08-07T14:36:12;3.05;;;2.80;;
11620;SDS011;5866;49.094;11.900;2023-08-07T14:38:41;3.35;;;3.13;;
11620;SDS011;5866;49.094;11.900;2023-08-07T14:41:08;3.25;;;3.05;;
11620;SDS011;5866;49.094;11.900;2023-08-07T14:43:36;10.30;;;9.70;;
11620;SDS011;5866;49.094;11.900;2023-08-07T14:46:03;5.18;;;4.88;;